Nogal, NM

12:14 AM MST op 29 november 2014 (GMT -0700)
coyote mesa | Change Station
CLOSE
Current Station
Persoonlijk weerstation
Location: Alto, NM
Geometrische hoogte: 7323 ft
Nabije weerstations

Hoogte 7323 ft 33.43 °N, 105.66 °W | Updated 7 minutes ago

Helder
Helder
28.8 °F
Voelt als 29 °F
N
0.0
Wind Variabel Wind van NNW

Vandaag
Hoog -- | Laag -- °F
--% Kans op neerslag
Gisteren
Hoog -- | Laag -- °F
Precip. -- inches
6:47 AM 4:55 PM
Wassende halvemaan, 49% visible
Druk 30.13 inches
Zicht 10.0 mijlen
Wolken Helder
Gevoelstemperatuur 29 °F
Dauwpunt 9 °F
Vochtigheid 42%
Neerslag 0.00 inches
Dikte sneeuw Niet beschikbaar.
UV 0 van de 12
Pollen 5.10 van de 12
Luchtkwaliteit Niet beschikbaar.
Flu Activity Niet beschikbaar.
METAR KSRR 290655Z AUTO 28009KT 10SM CLR 05/M09 A3013 RMK AO2

More Conditions Fewer Conditions

Druk 30.13 inches
Zicht 10.0 mijlen
Wolken Helder
Gevoelstemperatuur 29 °F
Dauwpunt 9 °F
Vochtigheid 42%
Neerslag 0.00 inches
Dikte sneeuw Niet beschikbaar.
UV 0 van de 12
Pollen 5.10 van de 12
Luchtkwaliteit Niet beschikbaar.
Flu Activity Niet beschikbaar.
METAR KSRR 290655Z AUTO 28009KT 10SM CLR 05/M09 A3013 RMK AO2

More Conditions Fewer Conditions

10-Day Weather Forecast

Almanac

Astronomie

Nov. 29, 2014 Opkomst Ondergang
Werkelijke tijd
Burgerlijke schemering
Nautische schemering
Astronomische schemering
Maan
Golflengte van het zichtbare licht
Daglengte
Tomorrow will be .
, % of the Moon is Illuminated

Extremen vandaag

State Highs State Lows

Community

WunderPhotos

Upload Photos

1,774,432 foto’s ge-upload!

WunderBlogs® & News

Nearby

Luchtkwaliteit

  Luchtkwaliteit LK-index Verontreinigende stof
Not available.

Dikte sneeuw

Station Depth Geometrische hoogte

Aardbevingen

Stad Distance Mag. Time & Date
Minimum magnitude displayed is 2.5.

Watertemperatuur langs de kust

Plaats Temperatuur

Nabije weerstations